sensor_id;sensor_type;location;lat;lon;timestamp;temperature;humidity
75489;HTU21D;64069;46.396;48.102;2023-07-08T00:00:19;25.13;64.29
75489;HTU21D;64069;46.396;48.102;2023-07-08T00:02:47;25.08;64.15
75489;HTU21D;64069;46.396;48.102;2023-07-08T00:05:16;25.05;64.05
75489;HTU21D;64069;46.396;48.102;2023-07-08T00:07:43;25.02;63.82
75489;HTU21D;64069;46.396;48.102;2023-07-08T00:10:24;25.00;63.62
75489;HTU21D;64069;46.396;48.102;2023-07-08T00:12:50;25.00;63.22
75489;HTU21D;64069;46.396;48.102;2023-07-08T00:15:18;25.00;62.95
75489;HTU21D;64069;46.396;48.102;2023-07-08T00:17:44;24.99;62.82
75489;HTU21D;64069;46.396;48.102;2023-07-08T00:23:00;24.94;62.50
75489;HTU21D;64069;46.396;48.102;2023-07-08T00:25:27;24.95;62.34
75489;HTU21D;64069;46.396;48.102;2023-07-08T00:27:53;24.95;62.23
75489;HTU21D;64069;46.396;48.102;2023-07-08T00:32:49;24.92;62.17
75489;HTU21D;64069;46.396;48.102;2023-07-08T00:35:28;24.88;62.11
75489;HTU21D;64069;46.396;48.102;2023-07-08T00:37:55;24.86;62.05
75489;HTU21D;64069;46.396;48.102;2023-07-08T00:43:17;24.78;62.08
75489;HTU21D;64069;46.396;48.102;2023-07-08T00:45:51;24.76;62.09
75489;HTU21D;64069;46.396;48.102;2023-07-08T00:48:23;24.72;62.15
75489;HTU21D;64069;46.396;48.102;2023-07-08T00:50:50;24.70;62.21
75489;HTU21D;64069;46.396;48.102;2023-07-08T00:55:57;24.63;62.25
75489;HTU21D;64069;46.396;48.102;2023-07-08T00:58:25;24.64;61.94
75489;HTU21D;64069;46.396;48.102;2023-07-08T01:00:52;24.69;61.55
75489;HTU21D;64069;46.396;48.102;2023-07-08T01:03:23;24.73;61.27
75489;HTU21D;64069;46.396;48.102;2023-07-08T01:05:50;24.76;61.05
75489;HTU21D;64069;46.396;48.102;2023-07-08T01:08:17;24.78;60.80
75489;HTU21D;64069;46.396;48.102;2023-07-08T01:10:46;24.83;60.51
75489;HTU21D;64069;46.396;48.102;2023-07-08T01:13:14;24.87;60.24
75489;HTU21D;64069;46.396;48.102;2023-07-08T01:15:42;24.93;59.92
75489;HTU21D;64069;46.396;48.102;2023-07-08T01:18:10;24.97;59.67
75489;HTU21D;64069;46.396;48.102;2023-07-08T01:20:37;25.00;59.51
75489;HTU21D;64069;46.396;48.102;2023-07-08T01:23:04;25.01;59.37
75489;HTU21D;64069;46.396;48.102;2023-07-08T01:25:31;25.02;59.19
75489;HTU21D;64069;46.396;48.102;2023-07-08T01:27:58;25.02;59.11
75489;HTU21D;64069;46.396;48.102;2023-07-08T01:30:25;25.05;58.94
75489;HTU21D;64069;46.396;48.102;2023-07-08T01:32:56;25.10;58.70
75489;HTU21D;64069;46.396;48.102;2023-07-08T01:35:23;25.17;58.41
75489;HTU21D;64069;46.396;48.102;2023-07-08T01:37:52;25.29;58.06
75489;HTU21D;64069;46.396;48.102;2023-07-08T01:42:45;25.45;57.39
75489;HTU21D;64069;46.396;48.102;2023-07-08T01:45:17;25.68;56.61
75489;HTU21D;64069;46.396;48.102;2023-07-08T01:47:47;25.90;55.68
75489;HTU21D;64069;46.396;48.102;2023-07-08T01:50:14;26.05;54.92
75489;HTU21D;64069;46.396;48.102;2023-07-08T01:52:40;26.13;54.38
75489;HTU21D;64069;46.396;48.102;2023-07-08T01:55:06;26.21;53.78
75489;HTU21D;64069;46.396;48.102;2023-07-08T01:57:32;26.27;53.23
75489;HTU21D;64069;46.396;48.102;2023-07-08T01:59:58;26.45;52.73
75489;HTU21D;64069;46.396;48.102;2023-07-08T02:02:25;26.68;51.81
75489;HTU21D;64069;46.396;48.102;2023-07-08T02:04:51;26.96;51.00
75489;HTU21D;64069;46.396;48.102;2023-07-08T02:07:17;27.20;50.37
75489;HTU21D;64069;46.396;48.102;2023-07-08T02:09:43;27.31;49.93
75489;HTU21D;64069;46.396;48.102;2023-07-08T02:12:08;27.56;49.34
75489;HTU21D;64069;46.396;48.102;2023-07-08T02:14:34;27.82;48.39
75489;HTU21D;64069;46.396;48.102;2023-07-08T02:17:00;27.99;47.88
75489;HTU21D;64069;46.396;48.102;2023-07-08T02:19:26;28.17;47.35
75489;HTU21D;64069;46.396;48.102;2023-07-08T02:21:53;28.39;46.84
75489;HTU21D;64069;46.396;48.102;2023-07-08T02:24:19;28.62;46.09
75489;HTU21D;64069;46.396;48.102;2023-07-08T02:26:45;28.89;45.50
75489;HTU21D;64069;46.396;48.102;2023-07-08T02:29:15;29.21;44.74
75489;HTU21D;64069;46.396;48.102;2023-07-08T02:31:40;29.41;44.10
75489;HTU21D;64069;46.396;48.102;2023-07-08T02:34:06;29.57;43.50
75489;HTU21D;64069;46.396;48.102;2023-07-08T02:36:33;29.72;42.97
75489;HTU21D;64069;46.396;48.102;2023-07-08T02:39:00;29.86;42.61
75489;HTU21D;64069;46.396;48.102;2023-07-08T02:41:26;29.89;42.15
75489;HTU21D;64069;46.396;48.102;2023-07-08T02:43:52;29.91;41.96
75489;HTU21D;64069;46.396;48.102;2023-07-08T02:46:17;30.00;41.85
75489;HTU21D;64069;46.396;48.102;2023-07-08T02:48:43;29.98;41.67
75489;HTU21D;64069;46.396;48.102;2023-07-08T02:51:10;29.92;41.61
75489;HTU21D;64069;46.396;48.102;2023-07-08T02:53:36;29.97;41.43
75489;HTU21D;64069;46.396;48.102;2023-07-08T02:56:03;30.03;41.40
75489;HTU21D;64069;46.396;48.102;2023-07-08T02:58:29;30.13;41.17
75489;HTU21D;64069;46.396;48.102;2023-07-08T03:00:56;30.28;40.87
75489;HTU21D;64069;46.396;48.102;2023-07-08T03:03:29;30.41;40.41
75489;HTU21D;64069;46.396;48.102;2023-07-08T03:08:22;30.56;40.11
75489;HTU21D;64069;46.396;48.102;2023-07-08T03:10:53;30.66;40.01
75489;HTU21D;64069;46.396;48.102;2023-07-08T03:13:20;30.79;39.79
75489;HTU21D;64069;46.396;48.102;2023-07-08T03:15:46;30.98;39.46
75489;HTU21D;64069;46.396;48.102;2023-07-08T03:18:12;31.16;39.08
75489;HTU21D;64069;46.396;48.102;2023-07-08T03:20:41;31.38;38.62
75489;HTU21D;64069;46.396;48.102;2023-07-08T03:23:12;31.63;38.12
75489;HTU21D;64069;46.396;48.102;2023-07-08T03:25:38;31.88;37.24
75489;HTU21D;64069;46.396;48.102;2023-07-08T03:28:06;32.07;36.50
75489;HTU21D;64069;46.396;48.102;2023-07-08T03:30:33;32.25;36.30
75489;HTU21D;64069;46.396;48.102;2023-07-08T03:33:00;32.41;36.04
75489;HTU21D;64069;46.396;48.102;2023-07-08T03:35:26;32.69;35.50
75489;HTU21D;64069;46.396;48.102;2023-07-08T03:37:52;32.77;35.27
75489;HTU21D;64069;46.396;48.102;2023-07-08T03:40:18;32.86;35.12
75489;HTU21D;64069;46.396;48.102;2023-07-08T03:42:44;32.98;34.88
75489;HTU21D;64069;46.396;48.102;2023-07-08T03:45:11;33.00;34.73
75489;HTU21D;64069;46.396;48.102;2023-07-08T03:47:37;33.02;34.68
75489;HTU21D;64069;46.396;48.102;2023-07-08T03:50:03;33.19;34.45
75489;HTU21D;64069;46.396;48.102;2023-07-08T03:52:29;33.60;33.88
75489;HTU21D;64069;46.396;48.102;2023-07-08T03:54:56;33.71;33.62
75489;HTU21D;64069;46.396;48.102;2023-07-08T03:57:22;33.86;33.52
75489;HTU21D;64069;46.396;48.102;2023-07-08T03:59:48;33.99;33.33
75489;HTU21D;64069;46.396;48.102;2023-07-08T04:02:14;33.94;33.54
75489;HTU21D;64069;46.396;48.102;2023-07-08T04:04:40;33.91;33.78
75489;HTU21D;64069;46.396;48.102;2023-07-08T04:07:07;33.91;34.00
75489;HTU21D;64069;46.396;48.102;2023-07-08T04:09:33;33.99;34.03
75489;HTU21D;64069;46.396;48.102;2023-07-08T04:11:59;34.22;33.86
75489;HTU21D;64069;46.396;48.102;2023-07-08T04:14:25;34.26;33.92
75489;HTU21D;64069;46.396;48.102;2023-07-08T04:17:00;34.50;33.99
75489;HTU21D;64069;46.396;48.102;2023-07-08T04:19:26;34.61;33.99
75489;HTU21D;64069;46.396;48.102;2023-07-08T04:21:52;34.62;34.08
75489;HTU21D;64069;46.396;48.102;2023-07-08T04:24:18;34.64;34.21
75489;HTU21D;64069;46.396;48.102;2023-07-08T04:26:47;34.63;34.31
75489;HTU21D;64069;46.396;48.102;2023-07-08T04:29:16;34.63;34.44
75489;HTU21D;64069;46.396;48.102;2023-07-08T04:31:42;34.81;34.41
75489;HTU21D;64069;46.396;48.102;2023-07-08T04:34:08;35.03;34.36
75489;HTU21D;64069;46.396;48.102;2023-07-08T04:36:35;35.21;34.33
75489;HTU21D;64069;46.396;48.102;2023-07-08T04:39:04;35.29;34.41
75489;HTU21D;64069;46.396;48.102;2023-07-08T04:41:31;35.44;34.45
75489;HTU21D;64069;46.396;48.102;2023-07-08T04:43:57;35.63;34.38
75489;HTU21D;64069;46.396;48.102;2023-07-08T04:48:56;35.72;34.71
75489;HTU21D;64069;46.396;48.102;2023-07-08T04:51:26;35.81;34.90
75489;HTU21D;64069;46.396;48.102;2023-07-08T04:53:52;35.85;35.26
75489;HTU21D;64069;46.396;48.102;2023-07-08T04:56:17;35.97;35.50
75489;HTU21D;64069;46.396;48.102;2023-07-08T04:58:44;36.01;35.50
75489;HTU21D;64069;46.396;48.102;2023-07-08T05:01:11;35.88;36.00
75489;HTU21D;64069;46.396;48.102;2023-07-08T05:03:36;36.21;35.91
75489;HTU21D;64069;46.396;48.102;2023-07-08T05:06:02;36.56;35.62
75489;HTU21D;64069;46.396;48.102;2023-07-08T05:08:28;36.69;35.62
75489;HTU21D;64069;46.396;48.102;2023-07-08T05:10:55;36.90;35.63
75489;HTU21D;64069;46.396;48.102;2023-07-08T05:13:21;37.06;35.11
75489;HTU21D;64069;46.396;48.102;2023-07-08T05:15:48;37.11;35.15
75489;HTU21D;64069;46.396;48.102;2023-07-08T05:18:14;37.40;34.97
75489;HTU21D;64069;46.396;48.102;2023-07-08T05:20:40;37.67;34.73
75489;HTU21D;64069;46.396;48.102;2023-07-08T05:23:06;37.65;35.08
75489;HTU21D;64069;46.396;48.102;2023-07-08T05:25:32;37.74;35.36
75489;HTU21D;64069;46.396;48.102;2023-07-08T05:27:59;38.22;35.15
75489;HTU21D;64069;46.396;48.102;2023-07-08T05:30:25;38.62;34.75
75489;HTU21D;64069;46.396;48.102;2023-07-08T05:32:51;38.79;34.82
75489;HTU21D;64069;46.396;48.102;2023-07-08T05:35:18;38.94;34.92
75489;HTU21D;64069;46.396;48.102;2023-07-08T05:37:44;39.03;34.93
75489;HTU21D;64069;46.396;48.102;2023-07-08T05:40:12;39.02;35.09
75489;HTU21D;64069;46.396;48.102;2023-07-08T05:42:38;39.10;35.28
75489;HTU21D;64069;46.396;48.102;2023-07-08T05:45:05;39.19;34.93
75489;HTU21D;64069;46.396;48.102;2023-07-08T05:47:39;38.99;35.62
75489;HTU21D;64069;46.396;48.102;2023-07-08T05:50:05;38.95;35.84
75489;HTU21D;64069;46.396;48.102;2023-07-08T05:52:32;38.77;36.23
75489;HTU21D;64069;46.396;48.102;2023-07-08T05:55:01;38.67;36.77
75489;HTU21D;64069;46.396;48.102;2023-07-08T05:57:26;38.66;37.04
75489;HTU21D;64069;46.396;48.102;2023-07-08T05:59:53;38.44;37.56
75489;HTU21D;64069;46.396;48.102;2023-07-08T06:02:19;38.16;38.28
75489;HTU21D;64069;46.396;48.102;2023-07-08T06:04:51;38.04;38.69
75489;HTU21D;64069;46.396;48.102;2023-07-08T06:07:17;38.03;38.87
75489;HTU21D;64069;46.396;48.102;2023-07-08T06:09:43;38.02;38.91
75489;HTU21D;64069;46.396;48.102;2023-07-08T06:12:10;38.00;39.07
75489;HTU21D;64069;46.396;48.102;2023-07-08T06:14:36;38.07;38.93
75489;HTU21D;64069;46.396;48.102;2023-07-08T06:17:03;38.00;39.10
75489;HTU21D;64069;46.396;48.102;2023-07-08T06:19:33;38.26;38.54
75489;HTU21D;64069;46.396;48.102;2023-07-08T06:21:59;38.52;38.03
75489;HTU21D;64069;46.396;48.102;2023-07-08T06:24:25;38.71;37.24
75489;HTU21D;64069;46.396;48.102;2023-07-08T06:26:51;38.96;36.68
75489;HTU21D;64069;46.396;48.102;2023-07-08T06:29:16;39.15;36.01
75489;HTU21D;64069;46.396;48.102;2023-07-08T06:31:45;39.33;35.65
75489;HTU21D;64069;46.396;48.102;2023-07-08T06:34:10;39.69;33.92
75489;HTU21D;64069;46.396;48.102;2023-07-08T06:36:36;40.18;31.96
75489;HTU21D;64069;46.396;48.102;2023-07-08T06:39:02;40.62;31.48
75489;HTU21D;64069;46.396;48.102;2023-07-08T06:41:30;40.72;30.31
75489;HTU21D;64069;46.396;48.102;2023-07-08T06:43:55;41.03;29.26
75489;HTU21D;64069;46.396;48.102;2023-07-08T06:46:25;41.47;27.97
75489;HTU21D;64069;46.396;48.102;2023-07-08T06:48:55;41.66;27.25
75489;HTU21D;64069;46.396;48.102;2023-07-08T06:51:21;41.67;26.57
75489;HTU21D;64069;46.396;48.102;2023-07-08T06:53:47;41.66;26.01
75489;HTU21D;64069;46.396;48.102;2023-07-08T06:56:13;41.62;25.85
75489;HTU21D;64069;46.396;48.102;2023-07-08T06:58:42;41.69;25.88
75489;HTU21D;64069;46.396;48.102;2023-07-08T07:01:07;41.84;25.18
75489;HTU21D;64069;46.396;48.102;2023-07-08T07:03:33;41.77;24.87
75489;HTU21D;64069;46.396;48.102;2023-07-08T07:05:59;41.89;24.94
75489;HTU21D;64069;46.396;48.102;2023-07-08T07:08:25;41.98;25.14
75489;HTU21D;64069;46.396;48.102;2023-07-08T07:10:51;42.00;24.78
75489;HTU21D;64069;46.396;48.102;2023-07-08T07:13:17;41.89;24.79
75489;HTU21D;64069;46.396;48.102;2023-07-08T07:15:43;41.93;24.30
75489;HTU21D;64069;46.396;48.102;2023-07-08T07:18:09;42.16;23.43
75489;HTU21D;64069;46.396;48.102;2023-07-08T07:20:36;42.10;22.85
75489;HTU21D;64069;46.396;48.102;2023-07-08T07:23:03;42.15;22.27
75489;HTU21D;64069;46.396;48.102;2023-07-08T07:25:29;41.98;22.33
75489;HTU21D;64069;46.396;48.102;2023-07-08T07:27:55;41.88;22.28
75489;HTU21D;64069;46.396;48.102;2023-07-08T07:30:21;41.79;21.91
75489;HTU21D;64069;46.396;48.102;2023-07-08T07:32:47;41.86;22.16
75489;HTU21D;64069;46.396;48.102;2023-07-08T07:35:13;42.02;22.11
75489;HTU21D;64069;46.396;48.102;2023-07-08T07:37:41;42.14;22.11
75489;HTU21D;64069;46.396;48.102;2023-07-08T07:40:10;42.24;22.09
75489;HTU21D;64069;46.396;48.102;2023-07-08T07:42:42;42.21;21.88
75489;HTU21D;64069;46.396;48.102;2023-07-08T07:45:10;41.90;21.90
75489;HTU21D;64069;46.396;48.102;2023-07-08T07:47:36;41.74;21.60
75489;HTU21D;64069;46.396;48.102;2023-07-08T07:50:03;41.81;20.69
75489;HTU21D;64069;46.396;48.102;2023-07-08T07:52:31;41.91;20.31
75489;HTU21D;64069;46.396;48.102;2023-07-08T07:54:57;42.01;20.33
75489;HTU21D;64069;46.396;48.102;2023-07-08T07:57:23;42.00;19.90
75489;HTU21D;64069;46.396;48.102;2023-07-08T07:59:49;41.73;19.83
75489;HTU21D;64069;46.396;48.102;2023-07-08T08:02:16;41.59;19.39
75489;HTU21D;64069;46.396;48.102;2023-07-08T08:04:42;41.60;18.96
75489;HTU21D;64069;46.396;48.102;2023-07-08T08:07:08;41.54;18.77
75489;HTU21D;64069;46.396;48.102;2023-07-08T08:09:36;41.58;18.60
75489;HTU21D;64069;46.396;48.102;2023-07-08T08:12:09;41.70;19.04
75489;HTU21D;64069;46.396;48.102;2023-07-08T08:14:35;41.78;18.68
75489;HTU21D;64069;46.396;48.102;2023-07-08T08:17:01;42.01;17.99
75489;HTU21D;64069;46.396;48.102;2023-07-08T08:19:27;42.07;17.35
75489;HTU21D;64069;46.396;48.102;2023-07-08T08:21:54;41.95;17.70
75489;HTU21D;64069;46.396;48.102;2023-07-08T08:24:20;42.08;17.76
75489;HTU21D;64069;46.396;48.102;2023-07-08T08:26:46;42.18;17.34
75489;HTU21D;64069;46.396;48.102;2023-07-08T08:29:12;42.29;17.30
75489;HTU21D;64069;46.396;48.102;2023-07-08T08:31:38;42.36;17.35
75489;HTU21D;64069;46.396;48.102;2023-07-08T08:34:05;42.53;17.41
75489;HTU21D;64069;46.396;48.102;2023-07-08T08:36:32;42.65;17.06
75489;HTU21D;64069;46.396;48.102;2023-07-08T08:38:58;42.66;16.85
75489;HTU21D;64069;46.396;48.102;2023-07-08T08:41:31;42.54;16.58
75489;HTU21D;64069;46.396;48.102;2023-07-08T08:43:58;42.29;16.61
75489;HTU21D;64069;46.396;48.102;2023-07-08T08:49:43;42.28;16.65
75489;HTU21D;64069;46.396;48.102;2023-07-08T08:52:10;42.34;16.67
75489;HTU21D;64069;46.396;48.102;2023-07-08T08:54:37;42.45;16.80
75489;HTU21D;64069;46.396;48.102;2023-07-08T08:57:16;42.53;16.81
75489;HTU21D;64069;46.396;48.102;2023-07-08T08:59:53;42.55;16.69
75489;HTU21D;64069;46.396;48.102;2023-07-08T09:04:58;42.61;16.38
75489;HTU21D;64069;46.396;48.102;2023-07-08T09:07:28;42.47;16.12
75489;HTU21D;64069;46.396;48.102;2023-07-08T09:10:13;42.21;16.49
75489;HTU21D;64069;46.396;48.102;2023-07-08T09:12:39;42.09;15.95
75489;HTU21D;64069;46.396;48.102;2023-07-08T09:15:13;41.96;16.48
75489;HTU21D;64069;46.396;48.102;2023-07-08T09:17:39;41.87;16.01
75489;HTU21D;64069;46.396;48.102;2023-07-08T09:22:58;41.95;16.19
75489;HTU21D;64069;46.396;48.102;2023-07-08T09:25:26;42.03;16.27
75489;HTU21D;64069;46.396;48.102;2023-07-08T09:27:56;41.79;16.60
75489;HTU21D;64069;46.396;48.102;2023-07-08T09:30:24;41.57;16.05
75489;HTU21D;64069;46.396;48.102;2023-07-08T09:32:54;41.25;15.87
75489;HTU21D;64069;46.396;48.102;2023-07-08T09:35:25;41.07;16.68
75489;HTU21D;64069;46.396;48.102;2023-07-08T09:37:52;41.07;16.24
75489;HTU21D;64069;46.396;48.102;2023-07-08T09:40:31;40.96;16.36
75489;HTU21D;64069;46.396;48.102;2023-07-08T09:45:44;41.16;16.25
75489;HTU21D;64069;46.396;48.102;2023-07-08T09:48:21;41.10;16.21
75489;HTU21D;64069;46.396;48.102;2023-07-08T09:50:49;41.17;16.47
75489;HTU21D;64069;46.396;48.102;2023-07-08T09:53:16;41.35;16.49
75489;HTU21D;64069;46.396;48.102;2023-07-08T09:55:42;41.39;16.46
75489;HTU21D;64069;46.396;48.102;2023-07-08T09:58:29;41.21;16.66
75489;HTU21D;64069;46.396;48.102;2023-07-08T10:01:23;41.09;16.75
75489;HTU21D;64069;46.396;48.102;2023-07-08T10:03:49;40.90;17.27
75489;HTU21D;64069;46.396;48.102;2023-07-08T10:06:27;40.98;17.42
75489;HTU21D;64069;46.396;48.102;2023-07-08T10:09:11;40.95;17.13
75489;HTU21D;64069;46.396;48.102;2023-07-08T10:11:54;41.01;17.09
75489;HTU21D;64069;46.396;48.102;2023-07-08T10:14:34;41.00;17.27
75489;HTU21D;64069;46.396;48.102;2023-07-08T10:17:16;40.92;17.80
75489;HTU21D;64069;46.396;48.102;2023-07-08T10:19:49;40.96;18.03
75489;HTU21D;64069;46.396;48.102;2023-07-08T10:25:05;41.01;18.18
75489;HTU21D;64069;46.396;48.102;2023-07-08T10:30:58;40.68;18.56
75489;HTU21D;64069;46.396;48.102;2023-07-08T10:36:37;40.24;19.44
75489;HTU21D;64069;46.396;48.102;2023-07-08T10:45:15;40.29;19.09
75489;HTU21D;64069;46.396;48.102;2023-07-08T10:59:46;40.62;17.94
75489;HTU21D;64069;46.396;48.102;2023-07-08T11:03:05;40.73;17.83
75489;HTU21D;64069;46.396;48.102;2023-07-08T11:10:32;40.44;18.62
75489;HTU21D;64069;46.396;48.102;2023-07-08T11:13:22;40.48;18.67
75489;HTU21D;64069;46.396;48.102;2023-07-08T11:19:02;40.62;18.75
75489;HTU21D;64069;46.396;48.102;2023-07-08T11:21:42;40.48;19.01
75489;HTU21D;64069;46.396;48.102;2023-07-08T11:24:45;40.36;18.59
75489;HTU21D;64069;46.396;48.102;2023-07-08T11:27:30;40.30;18.48
75489;HTU21D;64069;46.396;48.102;2023-07-08T11:33:00;40.39;18.77
75489;HTU21D;64069;46.396;48.102;2023-07-08T11:35:48;40.42;18.77
75489;HTU21D;64069;46.396;48.102;2023-07-08T11:38:22;40.29;18.74
75489;HTU21D;64069;46.396;48.102;2023-07-08T11:41:00;40.15;19.03
75489;HTU21D;64069;46.396;48.102;2023-07-08T11:43:52;40.01;19.48
75489;HTU21D;64069;46.396;48.102;2023-07-08T11:46:30;39.86;19.54
75489;HTU21D;64069;46.396;48.102;2023-07-08T11:49:13;39.86;19.00
75489;HTU21D;64069;46.396;48.102;2023-07-08T11:51:46;39.77;18.23
75489;HTU21D;64069;46.396;48.102;2023-07-08T11:57:06;39.57;18.47
75489;HTU21D;64069;46.396;48.102;2023-07-08T11:59:40;39.41;18.88
75489;HTU21D;64069;46.396;48.102;2023-07-08T12:02:16;39.29;19.13
75489;HTU21D;64069;46.396;48.102;2023-07-08T12:05:46;39.39;19.15
75489;HTU21D;64069;46.396;48.102;2023-07-08T12:07:56;39.41;19.29
75489;HTU21D;64069;46.396;48.102;2023-07-08T12:10:39;39.32;19.40
75489;HTU21D;64069;46.396;48.102;2023-07-08T12:13:17;39.24;19.45
75489;HTU21D;64069;46.396;48.102;2023-07-08T12:15:49;39.20;19.67
75489;HTU21D;64069;46.396;48.102;2023-07-08T12:18:22;39.18;19.79
75489;HTU21D;64069;46.396;48.102;2023-07-08T12:20:58;39.14;20.12
75489;HTU21D;64069;46.396;48.102;2023-07-08T12:23:32;39.21;20.35
75489;HTU21D;64069;46.396;48.102;2023-07-08T12:26:05;39.23;20.85
75489;HTU21D;64069;46.396;48.102;2023-07-08T12:28:30;39.24;21.02
75489;HTU21D;64069;46.396;48.102;2023-07-08T12:31:20;39.24;21.32
75489;HTU21D;64069;46.396;48.102;2023-07-08T12:33:54;39.28;21.36
75489;HTU21D;64069;46.396;48.102;2023-07-08T12:36:22;39.24;21.98
75489;HTU21D;64069;46.396;48.102;2023-07-08T12:38:58;39.11;22.18
75489;HTU21D;64069;46.396;48.102;2023-07-08T12:41:33;38.94;22.19
75489;HTU21D;64069;46.396;48.102;2023-07-08T12:44:14;38.67;22.22
75489;HTU21D;64069;46.396;48.102;2023-07-08T12:46:55;38.59;21.94
75489;HTU21D;64069;46.396;48.102;2023-07-08T12:49:27;38.45;21.85
75489;HTU21D;64069;46.396;48.102;2023-07-08T12:52:02;38.32;21.84
75489;HTU21D;64069;46.396;48.102;2023-07-08T12:54:28;38.30;21.79
75489;HTU21D;64069;46.396;48.102;2023-07-08T12:57:02;38.20;21.82
75489;HTU21D;64069;46.396;48.102;2023-07-08T12:59:29;38.21;22.08
75489;HTU21D;64069;46.396;48.102;2023-07-08T13:02:02;38.21;22.03
75489;HTU21D;64069;46.396;48.102;2023-07-08T13:04:28;38.08;21.82
75489;HTU21D;64069;46.396;48.102;2023-07-08T13:07:01;38.00;22.08
75489;HTU21D;64069;46.396;48.102;2023-07-08T13:12:13;38.00;23.34
75489;HTU21D;64069;46.396;48.102;2023-07-08T13:14:47;37.85;24.23
75489;HTU21D;64069;46.396;48.102;2023-07-08T13:17:14;37.61;25.08
75489;HTU21D;64069;46.396;48.102;2023-07-08T13:19:48;37.46;25.75
75489;HTU21D;64069;46.396;48.102;2023-07-08T13:22:20;37.37;25.99
75489;HTU21D;64069;46.396;48.102;2023-07-08T13:25:02;37.31;26.46
75489;HTU21D;64069;46.396;48.102;2023-07-08T13:27:35;37.26;26.86
75489;HTU21D;64069;46.396;48.102;2023-07-08T13:30:20;37.29;27.10
75489;HTU21D;64069;46.396;48.102;2023-07-08T13:32:58;37.29;27.36
75489;HTU21D;64069;46.396;48.102;2023-07-08T13:35:36;37.23;27.72
75489;HTU21D;64069;46.396;48.102;2023-07-08T13:38:18;37.27;27.79
75489;HTU21D;64069;46.396;48.102;2023-07-08T13:40:56;37.33;27.30
75489;HTU21D;64069;46.396;48.102;2023-07-08T13:43:39;37.25;26.75
75489;HTU21D;64069;46.396;48.102;2023-07-08T13:49:13;37.06;26.29
75489;HTU21D;64069;46.396;48.102;2023-07-08T13:51:46;36.95;26.51
75489;HTU21D;64069;46.396;48.102;2023-07-08T13:54:40;36.83;26.86
75489;HTU21D;64069;46.396;48.102;2023-07-08T13:57:16;36.74;26.82
75489;HTU21D;64069;46.396;48.102;2023-07-08T13:59:42;36.69;26.89
75489;HTU21D;64069;46.396;48.102;2023-07-08T14:02:19;36.66;27.05
75489;HTU21D;64069;46.396;48.102;2023-07-08T14:04:53;36.57;26.98
75489;HTU21D;64069;46.396;48.102;2023-07-08T14:07:23;36.51;26.95
75489;HTU21D;64069;46.396;48.102;2023-07-08T14:09:56;36.42;27.25
75489;HTU21D;64069;46.396;48.102;2023-07-08T14:12:22;36.39;27.40
75489;HTU21D;64069;46.396;48.102;2023-07-08T14:14:54;36.40;27.67
75489;HTU21D;64069;46.396;48.102;2023-07-08T14:17:23;36.45;27.91
75489;HTU21D;64069;46.396;48.102;2023-07-08T14:19:56;36.49;27.94
75489;HTU21D;64069;46.396;48.102;2023-07-08T14:22:24;36.44;27.97
75489;HTU21D;64069;46.396;48.102;2023-07-08T14:25:08;36.40;27.85
75489;HTU21D;64069;46.396;48.102;2023-07-08T14:27:41;36.44;27.73
75489;HTU21D;64069;46.396;48.102;2023-07-08T14:30:09;36.49;27.68
75489;HTU21D;64069;46.396;48.102;2023-07-08T14:32:44;36.55;27.52
75489;HTU21D;64069;46.396;48.102;2023-07-08T14:35:21;36.52;27.43
75489;HTU21D;64069;46.396;48.102;2023-07-08T14:37:55;36.38;27.69
75489;HTU21D;64069;46.396;48.102;2023-07-08T14:43:07;36.33;28.16
75489;HTU21D;64069;46.396;48.102;2023-07-08T14:45:54;36.32;28.22
75489;HTU21D;64069;46.396;48.102;2023-07-08T14:48:21;36.24;28.39
75489;HTU21D;64069;46.396;48.102;2023-07-08T14:50:54;36.25;28.77
75489;HTU21D;64069;46.396;48.102;2023-07-08T14:53:20;36.21;29.12
75489;HTU21D;64069;46.396;48.102;2023-07-08T14:55:55;36.25;28.90
75489;HTU21D;64069;46.396;48.102;2023-07-08T14:58:29;36.16;28.65
75489;HTU21D;64069;46.396;48.102;2023-07-08T15:01:08;36.02;28.55
75489;HTU21D;64069;46.396;48.102;2023-07-08T15:03:43;35.97;28.58
75489;HTU21D;64069;46.396;48.102;2023-07-08T15:06:10;35.81;29.09
75489;HTU21D;64069;46.396;48.102;2023-07-08T15:08:43;35.59;29.58
75489;HTU21D;64069;46.396;48.102;2023-07-08T15:11:11;35.48;30.00
75489;HTU21D;64069;46.396;48.102;2023-07-08T15:13:44;35.30;30.17
75489;HTU21D;64069;46.396;48.102;2023-07-08T15:16:13;35.21;30.32
75489;HTU21D;64069;46.396;48.102;2023-07-08T15:18:47;35.12;30.48
75489;HTU21D;64069;46.396;48.102;2023-07-08T15:21:13;35.03;30.50
75489;HTU21D;64069;46.396;48.102;2023-07-08T15:23:46;34.91;30.67
75489;HTU21D;64069;46.396;48.102;2023-07-08T15:26:12;34.81;30.80
75489;HTU21D;64069;46.396;48.102;2023-07-08T15:28:50;34.74;31.01
75489;HTU21D;64069;46.396;48.102;2023-07-08T15:31:26;34.69;31.17
75489;HTU21D;64069;46.396;48.102;2023-07-08T15:34:00;34.64;31.39
75489;HTU21D;64069;46.396;48.102;2023-07-08T15:36:26;34.54;32.01
75489;HTU21D;64069;46.396;48.102;2023-07-08T15:38:59;34.42;32.94
75489;HTU21D;64069;46.396;48.102;2023-07-08T15:41:26;34.30;33.94
75489;HTU21D;64069;46.396;48.102;2023-07-08T15:44:09;34.17;34.81
75489;HTU21D;64069;46.396;48.102;2023-07-08T15:46:50;33.99;35.60
75489;HTU21D;64069;46.396;48.102;2023-07-08T15:49:18;33.83;36.36
75489;HTU21D;64069;46.396;48.102;2023-07-08T15:51:51;33.66;37.05
75489;HTU21D;64069;46.396;48.102;2023-07-08T15:54:18;33.53;37.68
75489;HTU21D;64069;46.396;48.102;2023-07-08T15:56:53;33.42;38.26
75489;HTU21D;64069;46.396;48.102;2023-07-08T15:59:23;33.31;38.53
75489;HTU21D;64069;46.396;48.102;2023-07-08T16:02:04;33.26;38.94
75489;HTU21D;64069;46.396;48.102;2023-07-08T16:04:43;33.14;39.12
75489;HTU21D;64069;46.396;48.102;2023-07-08T16:07:09;33.05;39.50
75489;HTU21D;64069;46.396;48.102;2023-07-08T16:09:43;32.90;39.97
75489;HTU21D;64069;46.396;48.102;2023-07-08T16:12:11;32.77;40.37
75489;HTU21D;64069;46.396;48.102;2023-07-08T16:14:44;32.66;40.65
75489;HTU21D;64069;46.396;48.102;2023-07-08T16:17:11;32.53;41.11
75489;HTU21D;64069;46.396;48.102;2023-07-08T16:19:44;32.41;41.43
75489;HTU21D;64069;46.396;48.102;2023-07-08T16:22:16;32.31;41.67
75489;HTU21D;64069;46.396;48.102;2023-07-08T16:24:42;32.27;41.84
75489;HTU21D;64069;46.396;48.102;2023-07-08T16:27:15;32.19;41.92
75489;HTU21D;64069;46.396;48.102;2023-07-08T16:29:47;32.16;42.13
75489;HTU21D;64069;46.396;48.102;2023-07-08T16:32:19;32.15;42.12
75489;HTU21D;64069;46.396;48.102;2023-07-08T16:34:55;32.13;42.26
75489;HTU21D;64069;46.396;48.102;2023-07-08T16:37:21;32.05;42.65
75489;HTU21D;64069;46.396;48.102;2023-07-08T16:39:53;31.96;43.06